sensor_id;sensor_type;location;lat;lon;timestamp;pressure;altitude;pressure_sealevel;temperature;humidity
53522;BME280;39398;48.382;9.802;2023-03-14T00:01:26;92506.53;;;8.76;100.00
53522;BME280;39398;48.382;9.802;2023-03-14T00:06:28;92489.13;;;8.50;100.00
53522;BME280;39398;48.382;9.802;2023-03-14T00:11:29;92490.00;;;8.69;100.00
53522;BME280;39398;48.382;9.802;2023-03-14T00:16:32;92488.19;;;8.37;100.00
53522;BME280;39398;48.382;9.802;2023-03-14T00:21:34;92467.13;;;8.44;100.00
53522;BME280;39398;48.382;9.802;2023-03-14T00:26:35;92441.00;;;8.18;100.00
53522;BME280;39398;48.382;9.802;2023-03-14T00:31:38;92439.78;;;8.45;100.00
53522;BME280;39398;48.382;9.802;2023-03-14T00:36:40;92419.22;;;8.35;100.00
53522;BME280;39398;48.382;9.802;2023-03-14T00:41:42;92394.75;;;8.35;100.00
53522;BME280;39398;48.382;9.802;2023-03-14T00:46:44;92353.63;;;8.47;100.00
53522;BME280;39398;48.382;9.802;2023-03-14T00:51:46;92309.22;;;8.32;100.00
53522;BME280;39398;48.382;9.802;2023-03-14T00:56:48;92261.53;;;8.10;100.00
53522;BME280;39398;48.382;9.802;2023-03-14T01:01:51;92277.00;;;8.19;100.00
53522;BME280;39398;48.382;9.802;2023-03-14T01:06:52;92306.47;;;7.77;100.00
53522;BME280;39398;48.382;9.802;2023-03-14T01:11:54;92312.16;;;7.99;100.00
53522;BME280;39398;48.382;9.802;2023-03-14T01:16:57;92317.28;;;7.87;100.00
53522;BME280;39398;48.382;9.802;2023-03-14T01:21:58;92304.44;;;7.79;100.00
53522;BME280;39398;48.382;9.802;2023-03-14T01:27:00;92271.09;;;7.80;100.00
53522;BME280;39398;48.382;9.802;2023-03-14T01:32:03;92250.25;;;7.78;100.00
53522;BME280;39398;48.382;9.802;2023-03-14T01:37:04;92262.41;;;7.79;100.00
53522;BME280;39398;48.382;9.802;2023-03-14T01:42:06;92242.84;;;7.93;100.00
53522;BME280;39398;48.382;9.802;2023-03-14T01:47:09;92234.56;;;7.72;100.00
53522;BME280;39398;48.382;9.802;2023-03-14T01:52:13;92249.84;;;7.81;100.00
53522;BME280;39398;48.382;9.802;2023-03-14T01:57:19;92245.84;;;7.79;100.00
53522;BME280;39398;48.382;9.802;2023-03-14T02:02:24;92245.50;;;7.93;100.00
53522;BME280;39398;48.382;9.802;2023-03-14T02:07:33;92247.69;;;7.97;100.00
53522;BME280;39398;48.382;9.802;2023-03-14T02:12:36;92243.47;;;7.96;100.00
53522;BME280;39398;48.382;9.802;2023-03-14T02:17:40;92243.41;;;7.77;100.00
53522;BME280;39398;48.382;9.802;2023-03-14T02:22:45;92231.84;;;7.85;100.00
53522;BME280;39398;48.382;9.802;2023-03-14T02:27:49;92223.84;;;7.98;100.00
53522;BME280;39398;48.382;9.802;2023-03-14T02:32:53;92221.84;;;7.93;100.00
53522;BME280;39398;48.382;9.802;2023-03-14T02:38:00;92201.44;;;7.71;100.00
53522;BME280;39398;48.382;9.802;2023-03-14T02:43:05;92202.81;;;7.98;100.00
53522;BME280;39398;48.382;9.802;2023-03-14T02:48:11;92226.03;;;8.01;100.00
53522;BME280;39398;48.382;9.802;2023-03-14T02:53:18;92225.44;;;7.99;100.00
53522;BME280;39398;48.382;9.802;2023-03-14T02:58:24;92208.50;;;7.95;100.00
53522;BME280;39398;48.382;9.802;2023-03-14T03:03:25;92196.97;;;7.96;100.00
53522;BME280;39398;48.382;9.802;2023-03-14T03:08:28;92190.44;;;7.80;100.00
53522;BME280;39398;48.382;9.802;2023-03-14T03:13:31;92188.06;;;7.79;100.00
53522;BME280;39398;48.382;9.802;2023-03-14T03:18:33;92170.16;;;7.69;100.00
53522;BME280;39398;48.382;9.802;2023-03-14T03:23:35;92165.22;;;7.79;100.00
53522;BME280;39398;48.382;9.802;2023-03-14T03:28:38;92157.91;;;7.63;100.00
53522;BME280;39398;48.382;9.802;2023-03-14T03:33:39;92147.88;;;7.72;100.00
53522;BME280;39398;48.382;9.802;2023-03-14T03:38:41;92129.13;;;7.68;100.00
53522;BME280;39398;48.382;9.802;2023-03-14T03:43:44;92128.56;;;7.66;100.00
53522;BME280;39398;48.382;9.802;2023-03-14T03:48:45;92122.63;;;7.52;100.00
53522;BME280;39398;48.382;9.802;2023-03-14T03:53:47;92122.66;;;7.71;100.00
53522;BME280;39398;48.382;9.802;2023-03-14T03:58:50;92131.97;;;7.48;100.00
53522;BME280;39398;48.382;9.802;2023-03-14T04:03:51;92129.94;;;7.68;100.00
53522;BME280;39398;48.382;9.802;2023-03-14T04:08:53;92125.13;;;7.65;100.00
53522;BME280;39398;48.382;9.802;2023-03-14T04:13:56;92124.28;;;7.46;100.00
53522;BME280;39398;48.382;9.802;2023-03-14T04:18:58;92125.84;;;7.54;100.00
53522;BME280;39398;48.382;9.802;2023-03-14T04:23:59;92106.94;;;7.45;100.00
53522;BME280;39398;48.382;9.802;2023-03-14T04:29:02;92095.41;;;7.28;100.00
53522;BME280;39398;48.382;9.802;2023-03-14T04:34:04;92092.59;;;7.23;100.00
53522;BME280;39398;48.382;9.802;2023-03-14T04:39:05;92101.59;;;7.34;100.00
53522;BME280;39398;48.382;9.802;2023-03-14T04:44:08;92080.22;;;7.30;100.00
53522;BME280;39398;48.382;9.802;2023-03-14T04:49:10;92084.78;;;7.41;100.00
53522;BME280;39398;48.382;9.802;2023-03-14T04:54:11;92080.84;;;7.51;100.00
53522;BME280;39398;48.382;9.802;2023-03-14T04:59:14;92065.28;;;7.49;100.00
53522;BME280;39398;48.382;9.802;2023-03-14T05:04:16;92046.63;;;7.39;100.00
53522;BME280;39398;48.382;9.802;2023-03-14T05:09:17;92054.47;;;7.02;100.00
53522;BME280;39398;48.382;9.802;2023-03-14T05:14:20;92036.78;;;7.34;100.00
53522;BME280;39398;48.382;9.802;2023-03-14T05:19:22;92038.84;;;7.07;100.00
53522;BME280;39398;48.382;9.802;2023-03-14T05:24:23;92036.13;;;6.95;100.00
53522;BME280;39398;48.382;9.802;2023-03-14T05:29:26;92035.03;;;7.28;100.00
53522;BME280;39398;48.382;9.802;2023-03-14T05:34:28;92023.06;;;7.14;100.00
53522;BME280;39398;48.382;9.802;2023-03-14T05:39:30;92025.59;;;7.20;100.00
53522;BME280;39398;48.382;9.802;2023-03-14T05:44:33;92010.94;;;6.94;100.00
53522;BME280;39398;48.382;9.802;2023-03-14T05:49:34;92007.53;;;7.12;100.00
53522;BME280;39398;48.382;9.802;2023-03-14T05:54:36;92004.88;;;6.94;100.00
53522;BME280;39398;48.382;9.802;2023-03-14T05:59:39;91996.88;;;7.07;100.00
53522;BME280;39398;48.382;9.802;2023-03-14T06:04:40;91979.53;;;7.06;100.00
53522;BME280;39398;48.382;9.802;2023-03-14T06:09:42;91985.31;;;7.15;100.00
53522;BME280;39398;48.382;9.802;2023-03-14T06:14:45;91987.78;;;7.28;100.00
53522;BME280;39398;48.382;9.802;2023-03-14T06:19:46;91985.00;;;7.23;100.00
53522;BME280;39398;48.382;9.802;2023-03-14T06:24:48;91988.22;;;7.07;100.00
53522;BME280;39398;48.382;9.802;2023-03-14T06:29:51;91993.84;;;7.29;100.00
53522;BME280;39398;48.382;9.802;2023-03-14T06:34:53;92005.06;;;7.36;100.00
53522;BME280;39398;48.382;9.802;2023-03-14T06:39:54;91988.88;;;7.39;100.00
53522;BME280;39398;48.382;9.802;2023-03-14T06:44:57;91997.41;;;7.34;100.00
53522;BME280;39398;48.382;9.802;2023-03-14T06:49:59;92004.97;;;7.42;100.00
53522;BME280;39398;48.382;9.802;2023-03-14T06:55:01;92011.56;;;7.15;100.00
53522;BME280;39398;48.382;9.802;2023-03-14T07:00:05;92012.50;;;7.76;100.00
53522;BME280;39398;48.382;9.802;2023-03-14T07:05:07;92009.25;;;7.92;100.00
53522;BME280;39398;48.382;9.802;2023-03-14T07:10:10;92019.75;;;7.92;100.00
53522;BME280;39398;48.382;9.802;2023-03-14T07:15:13;92029.31;;;8.05;100.00
53522;BME280;39398;48.382;9.802;2023-03-14T07:20:19;92031.84;;;8.11;100.00
53522;BME280;39398;48.382;9.802;2023-03-14T07:25:21;92046.66;;;8.06;100.00
53522;BME280;39398;48.382;9.802;2023-03-14T07:30:24;92049.34;;;8.18;100.00
53522;BME280;39398;48.382;9.802;2023-03-14T07:35:25;92036.78;;;8.50;100.00
53522;BME280;39398;48.382;9.802;2023-03-14T07:40:27;92043.16;;;8.42;100.00
53522;BME280;39398;48.382;9.802;2023-03-14T07:45:30;92039.06;;;9.00;100.00
53522;BME280;39398;48.382;9.802;2023-03-14T07:50:32;92042.72;;;9.11;100.00
53522;BME280;39398;48.382;9.802;2023-03-14T07:55:33;92045.81;;;9.07;100.00
53522;BME280;39398;48.382;9.802;2023-03-14T08:00:36;92049.69;;;9.05;100.00
53522;BME280;39398;48.382;9.802;2023-03-14T08:05:38;92054.88;;;9.23;100.00
53522;BME280;39398;48.382;9.802;2023-03-14T08:10:40;92057.28;;;8.59;100.00
53522;BME280;39398;48.382;9.802;2023-03-14T08:15:47;92053.47;;;8.97;100.00
53522;BME280;39398;48.382;9.802;2023-03-14T08:20:49;92054.28;;;8.98;100.00
53522;BME280;39398;48.382;9.802;2023-03-14T08:25:51;92055.41;;;9.02;100.00
53522;BME280;39398;48.382;9.802;2023-03-14T08:30:56;92046.94;;;8.88;100.00
53522;BME280;39398;48.382;9.802;2023-03-14T08:35:59;92034.84;;;9.11;100.00
53522;BME280;39398;48.382;9.802;2023-03-14T08:41:02;92030.81;;;9.20;100.00
53522;BME280;39398;48.382;9.802;2023-03-14T08:46:05;92024.03;;;9.59;100.00
53522;BME280;39398;48.382;9.802;2023-03-14T08:51:08;92035.09;;;10.25;100.00
53522;BME280;39398;48.382;9.802;2023-03-14T08:56:10;92030.59;;;11.16;100.00
53522;BME280;39398;48.382;9.802;2023-03-14T09:01:13;92028.91;;;10.77;97.84
53522;BME280;39398;48.382;9.802;2023-03-14T09:06:15;92033.97;;;11.84;98.27
53522;BME280;39398;48.382;9.802;2023-03-14T09:11:16;92034.78;;;10.10;100.00
53522;BME280;39398;48.382;9.802;2023-03-14T09:16:19;92021.94;;;10.87;99.59
53522;BME280;39398;48.382;9.802;2023-03-14T09:21:21;92023.22;;;11.18;98.41
53522;BME280;39398;48.382;9.802;2023-03-14T09:26:23;92026.59;;;10.97;94.70
53522;BME280;39398;48.382;9.802;2023-03-14T09:31:26;92020.13;;;11.60;91.11
53522;BME280;39398;48.382;9.802;2023-03-14T09:36:28;92024.09;;;10.74;91.78
53522;BME280;39398;48.382;9.802;2023-03-14T09:41:33;92021.56;;;10.96;95.25
53522;BME280;39398;48.382;9.802;2023-03-14T09:46:38;92032.56;;;11.26;95.48
53522;BME280;39398;48.382;9.802;2023-03-14T09:51:42;92030.28;;;10.79;97.88
53522;BME280;39398;48.382;9.802;2023-03-14T09:56:45;92036.75;;;11.05;96.00
53522;BME280;39398;48.382;9.802;2023-03-14T10:01:48;92042.44;;;10.97;97.14
53522;BME280;39398;48.382;9.802;2023-03-14T10:06:50;92045.06;;;11.31;94.01
53522;BME280;39398;48.382;9.802;2023-03-14T10:11:55;92052.16;;;11.64;91.53
53522;BME280;39398;48.382;9.802;2023-03-14T10:17:04;92032.31;;;11.83;88.00
53522;BME280;39398;48.382;9.802;2023-03-14T10:22:13;92031.94;;;12.14;84.98
53522;BME280;39398;48.382;9.802;2023-03-14T10:27:19;92038.09;;;10.91;84.80
53522;BME280;39398;48.382;9.802;2023-03-14T10:32:28;92036.47;;;11.57;85.59
53522;BME280;39398;48.382;9.802;2023-03-14T10:37:30;92054.56;;;11.66;85.30
53522;BME280;39398;48.382;9.802;2023-03-14T10:42:32;92045.78;;;11.43;83.04
53522;BME280;39398;48.382;9.802;2023-03-14T10:47:35;92048.44;;;11.43;84.36
53522;BME280;39398;48.382;9.802;2023-03-14T10:52:46;92056.03;;;11.95;83.07
53522;BME280;39398;48.382;9.802;2023-03-14T10:58:02;92063.75;;;11.63;83.18
53522;BME280;39398;48.382;9.802;2023-03-14T11:03:08;92060.81;;;11.59;83.06
53522;BME280;39398;48.382;9.802;2023-03-14T11:08:16;92062.97;;;11.62;80.88
53522;BME280;39398;48.382;9.802;2023-03-14T11:13:25;92057.97;;;12.00;80.63
53522;BME280;39398;48.382;9.802;2023-03-14T11:18:51;92063.00;;;11.29;81.36
53522;BME280;39398;48.382;9.802;2023-03-14T11:24:05;92051.13;;;12.26;81.64
53522;BME280;39398;48.382;9.802;2023-03-14T11:29:20;92051.16;;;12.31;77.26
53522;BME280;39398;48.382;9.802;2023-03-14T11:34:28;92068.84;;;12.03;78.60
53522;BME280;39398;48.382;9.802;2023-03-14T11:39:38;92067.16;;;11.80;84.27
53522;BME280;39398;48.382;9.802;2023-03-14T11:44:43;92077.31;;;11.16;92.76
53522;BME280;39398;48.382;9.802;2023-03-14T11:49:50;92075.63;;;10.93;97.05
53522;BME280;39398;48.382;9.802;2023-03-14T11:54:55;92087.72;;;10.89;100.00
53522;BME280;39398;48.382;9.802;2023-03-14T12:00:00;92107.09;;;10.94;100.00
53522;BME280;39398;48.382;9.802;2023-03-14T12:05:31;92118.13;;;11.08;100.00
53522;BME280;39398;48.382;9.802;2023-03-14T12:10:40;92120.09;;;10.56;100.00
53522;BME280;39398;48.382;9.802;2023-03-14T12:15:47;92140.09;;;10.40;100.00
53522;BME280;39398;48.382;9.802;2023-03-14T12:20:53;92135.91;;;10.15;100.00
53522;BME280;39398;48.382;9.802;2023-03-14T12:26:08;92143.81;;;9.92;100.00
53522;BME280;39398;48.382;9.802;2023-03-14T12:36:56;92137.41;;;9.76;100.00
53522;BME280;39398;48.382;9.802;2023-03-14T12:42:02;92140.16;;;10.28;100.00
53522;BME280;39398;48.382;9.802;2023-03-14T12:52:52;92140.88;;;9.76;100.00
53522;BME280;39398;48.382;9.802;2023-03-14T12:58:03;92151.19;;;9.90;100.00
53522;BME280;39398;48.382;9.802;2023-03-14T13:03:17;92160.00;;;9.48;100.00
53522;BME280;39398;48.382;9.802;2023-03-14T13:08:35;92184.81;;;9.41;100.00
53522;BME280;39398;48.382;9.802;2023-03-14T13:13:44;92244.22;;;8.76;100.00
53522;BME280;39398;48.382;9.802;2023-03-14T13:18:49;92266.03;;;7.53;100.00
53522;BME280;39398;48.382;9.802;2023-03-14T13:23:58;92268.81;;;6.95;100.00
53522;BME280;39398;48.382;9.802;2023-03-14T13:29:08;92265.22;;;6.89;100.00
53522;BME280;39398;48.382;9.802;2023-03-14T13:34:10;92286.63;;;7.25;100.00
53522;BME280;39398;48.382;9.802;2023-03-14T13:39:17;92289.69;;;7.46;100.00
53522;BME280;39398;48.382;9.802;2023-03-14T13:44:25;92314.47;;;7.26;100.00
53522;BME280;39398;48.382;9.802;2023-03-14T13:49:29;92328.84;;;7.16;100.00
53522;BME280;39398;48.382;9.802;2023-03-14T13:54:32;92341.63;;;7.06;100.00
53522;BME280;39398;48.382;9.802;2023-03-14T13:59:35;92363.09;;;7.35;100.00
53522;BME280;39398;48.382;9.802;2023-03-14T14:04:37;92373.59;;;7.73;100.00
53522;BME280;39398;48.382;9.802;2023-03-14T14:09:41;92399.66;;;7.30;100.00
53522;BME280;39398;48.382;9.802;2023-03-14T14:14:47;92411.84;;;7.11;100.00
53522;BME280;39398;48.382;9.802;2023-03-14T14:19:50;92418.38;;;6.88;100.00
53522;BME280;39398;48.382;9.802;2023-03-14T14:24:55;92450.06;;;6.87;98.13
53522;BME280;39398;48.382;9.802;2023-03-14T14:29:59;92478.53;;;6.50;96.20
53522;BME280;39398;48.382;9.802;2023-03-14T14:35:01;92498.88;;;6.35;91.41
53522;BME280;39398;48.382;9.802;2023-03-14T14:40:13;92497.25;;;6.07;93.37
53522;BME280;39398;48.382;9.802;2023-03-14T14:45:19;92517.75;;;5.42;100.00
53522;BME280;39398;48.382;9.802;2023-03-14T14:50:28;92515.19;;;6.03;98.06
53522;BME280;39398;48.382;9.802;2023-03-14T14:55:33;92541.78;;;6.07;100.00
53522;BME280;39398;48.382;9.802;2023-03-14T15:00:39;92559.16;;;6.21;97.80
53522;BME280;39398;48.382;9.802;2023-03-14T15:05:43;92570.41;;;6.15;94.21
53522;BME280;39398;48.382;9.802;2023-03-14T15:10:46;92582.06;;;5.99;94.39
53522;BME280;39398;48.382;9.802;2023-03-14T15:15:48;92602.19;;;6.67;92.31
53522;BME280;39398;48.382;9.802;2023-03-14T15:20:51;92622.47;;;6.32;91.59
53522;BME280;39398;48.382;9.802;2023-03-14T15:25:54;92626.59;;;6.54;87.50
53522;BME280;39398;48.382;9.802;2023-03-14T15:30:58;92643.31;;;6.60;84.14
53522;BME280;39398;48.382;9.802;2023-03-14T15:36:00;92656.09;;;5.80;81.96
53522;BME280;39398;48.382;9.802;2023-03-14T15:41:03;92659.31;;;6.17;83.00
53522;BME280;39398;48.382;9.802;2023-03-14T15:46:05;92665.28;;;5.97;81.59
53522;BME280;39398;48.382;9.802;2023-03-14T15:51:07;92659.47;;;6.02;83.85
53522;BME280;39398;48.382;9.802;2023-03-14T15:56:12;92667.31;;;6.02;80.85
53522;BME280;39398;48.382;9.802;2023-03-14T16:01:15;92667.34;;;6.09;76.29
53522;BME280;39398;48.382;9.802;2023-03-14T16:06:18;92690.25;;;6.41;74.48
53522;BME280;39398;48.382;9.802;2023-03-14T16:11:21;92689.53;;;6.67;73.52
53522;BME280;39398;48.382;9.802;2023-03-14T16:16:23;92686.75;;;6.89;69.17
53522;BME280;39398;48.382;9.802;2023-03-14T16:21:25;92698.19;;;6.61;69.26
53522;BME280;39398;48.382;9.802;2023-03-14T16:26:28;92698.66;;;6.85;68.63
53522;BME280;39398;48.382;9.802;2023-03-14T16:31:29;92703.28;;;6.83;69.40
53522;BME280;39398;48.382;9.802;2023-03-14T16:36:31;92705.69;;;6.71;69.92
53522;BME280;39398;48.382;9.802;2023-03-14T16:41:35;92722.47;;;6.77;67.38
53522;BME280;39398;48.382;9.802;2023-03-14T16:46:36;92722.66;;;6.75;68.18
53522;BME280;39398;48.382;9.802;2023-03-14T16:51:38;92721.47;;;6.84;66.63
53522;BME280;39398;48.382;9.802;2023-03-14T16:56:41;92723.13;;;6.44;67.80
53522;BME280;39398;48.382;9.802;2023-03-14T17:01:44;92733.84;;;6.49;68.38
53522;BME280;39398;48.382;9.802;2023-03-14T17:06:46;92725.00;;;6.57;67.58
53522;BME280;39398;48.382;9.802;2023-03-14T17:11:49;92735.78;;;6.88;67.31
53522;BME280;39398;48.382;9.802;2023-03-14T17:16:50;92749.94;;;7.01;66.24
53522;BME280;39398;48.382;9.802;2023-03-14T17:21:52;92756.94;;;6.67;67.99
53522;BME280;39398;48.382;9.802;2023-03-14T17:27:11;92771.56;;;6.48;67.72
53522;BME280;39398;48.382;9.802;2023-03-14T17:32:13;92772.81;;;6.17;69.35
53522;BME280;39398;48.382;9.802;2023-03-14T17:37:14;92787.78;;;6.23;69.86
53522;BME280;39398;48.382;9.802;2023-03-14T17:42:17;92796.63;;;6.22;70.42
53522;BME280;39398;48.382;9.802;2023-03-14T17:47:19;92801.38;;;6.12;70.56
53522;BME280;39398;48.382;9.802;2023-03-14T17:52:20;92809.25;;;6.88;68.91
53522;BME280;39398;48.382;9.802;2023-03-14T17:57:24;92813.94;;;6.99;71.75
53522;BME280;39398;48.382;9.802;2023-03-14T18:02:25;92823.31;;;6.67;71.32
53522;BME280;39398;48.382;9.802;2023-03-14T18:07:27;92827.84;;;6.93;71.09
53522;BME280;39398;48.382;9.802;2023-03-14T18:12:30;92839.03;;;7.15;70.73
53522;BME280;39398;48.382;9.802;2023-03-14T18:17:33;92846.31;;;6.37;71.34
53522;BME280;39398;48.382;9.802;2023-03-14T18:22:35;92854.00;;;6.11;73.48
53522;BME280;39398;48.382;9.802;2023-03-14T18:27:38;92877.34;;;5.26;83.01
53522;BME280;39398;48.382;9.802;2023-03-14T18:32:39;92911.97;;;4.62;100.00
53522;BME280;39398;48.382;9.802;2023-03-14T18:37:41;92931.47;;;4.07;100.00
53522;BME280;39398;48.382;9.802;2023-03-14T18:42:47;92915.78;;;3.69;100.00
53522;BME280;39398;48.382;9.802;2023-03-14T18:47:48;92912.38;;;4.07;100.00
53522;BME280;39398;48.382;9.802;2023-03-14T18:52:50;92918.50;;;3.76;100.00
53522;BME280;39398;48.382;9.802;2023-03-14T18:57:53;92932.28;;;4.08;100.00
53522;BME280;39398;48.382;9.802;2023-03-14T19:02:55;92927.28;;;4.36;100.00
53522;BME280;39398;48.382;9.802;2023-03-14T19:07:56;92919.06;;;4.09;100.00
53522;BME280;39398;48.382;9.802;2023-03-14T19:12:59;92932.16;;;4.01;100.00
53522;BME280;39398;48.382;9.802;2023-03-14T19:18:01;92936.44;;;4.02;100.00
53522;BME280;39398;48.382;9.802;2023-03-14T19:23:02;92939.03;;;4.02;100.00
53522;BME280;39398;48.382;9.802;2023-03-14T19:28:05;92950.44;;;4.01;100.00
53522;BME280;39398;48.382;9.802;2023-03-14T19:33:08;92957.03;;;4.35;100.00
53522;BME280;39398;48.382;9.802;2023-03-14T19:38:10;92964.34;;;4.54;100.00
53522;BME280;39398;48.382;9.802;2023-03-14T19:43:13;92972.66;;;4.87;100.00
53522;BME280;39398;48.382;9.802;2023-03-14T19:48:15;92968.19;;;4.29;100.00
53522;BME280;39398;48.382;9.802;2023-03-14T19:53:16;92979.94;;;4.48;100.00
53522;BME280;39398;48.382;9.802;2023-03-14T19:58:19;92989.28;;;4.80;100.00
53522;BME280;39398;48.382;9.802;2023-03-14T20:03:21;93000.41;;;4.59;100.00
53522;BME280;39398;48.382;9.802;2023-03-14T20:08:23;93006.81;;;4.56;100.00
53522;BME280;39398;48.382;9.802;2023-03-14T20:13:26;93000.91;;;4.39;100.00
53522;BME280;39398;48.382;9.802;2023-03-14T20:18:27;92993.06;;;4.39;100.00
53522;BME280;39398;48.382;9.802;2023-03-14T20:23:29;92994.16;;;4.45;100.00
53522;BME280;39398;48.382;9.802;2023-03-14T20:28:32;93009.88;;;4.22;100.00
53522;BME280;39398;48.382;9.802;2023-03-14T20:33:33;93015.53;;;3.80;100.00
53522;BME280;39398;48.382;9.802;2023-03-14T20:38:35;93005.53;;;3.91;100.00
53522;BME280;39398;48.382;9.802;2023-03-14T20:43:38;93024.41;;;3.39;100.00
53522;BME280;39398;48.382;9.802;2023-03-14T20:48:40;93019.44;;;3.61;100.00
53522;BME280;39398;48.382;9.802;2023-03-14T20:53:41;93027.09;;;3.54;100.00
53522;BME280;39398;48.382;9.802;2023-03-14T20:58:44;93023.34;;;3.88;100.00
53522;BME280;39398;48.382;9.802;2023-03-14T21:03:46;93018.13;;;4.11;100.00
53522;BME280;39398;48.382;9.802;2023-03-14T21:08:48;93017.97;;;4.12;100.00
53522;BME280;39398;48.382;9.802;2023-03-14T21:13:51;93019.69;;;4.20;100.00
53522;BME280;39398;48.382;9.802;2023-03-14T21:18:53;93033.56;;;4.20;100.00
53522;BME280;39398;48.382;9.802;2023-03-14T21:23:54;93036.13;;;4.29;100.00
53522;BME280;39398;48.382;9.802;2023-03-14T21:28:57;93050.03;;;4.21;100.00
53522;BME280;39398;48.382;9.802;2023-03-14T21:33:59;93049.56;;;4.17;100.00
53522;BME280;39398;48.382;9.802;2023-03-14T21:39:01;93044.41;;;4.32;100.00
53522;BME280;39398;48.382;9.802;2023-03-14T21:44:04;93043.50;;;4.25;100.00
53522;BME280;39398;48.382;9.802;2023-03-14T21:49:05;93039.88;;;4.26;100.00
53522;BME280;39398;48.382;9.802;2023-03-14T21:54:07;93046.03;;;4.10;100.00
53522;BME280;39398;48.382;9.802;2023-03-14T21:59:10;93052.03;;;4.19;100.00
53522;BME280;39398;48.382;9.802;2023-03-14T22:04:12;93064.91;;;3.97;100.00
53522;BME280;39398;48.382;9.802;2023-03-14T22:09:14;93071.22;;;3.72;100.00
53522;BME280;39398;48.382;9.802;2023-03-14T22:14:17;93080.47;;;3.52;100.00
53522;BME280;39398;48.382;9.802;2023-03-14T22:19:18;93083.91;;;2.80;100.00
53522;BME280;39398;48.382;9.802;2023-03-14T22:24:20;93088.47;;;2.13;100.00
53522;BME280;39398;48.382;9.802;2023-03-14T22:29:23;93089.97;;;2.31;100.00
53522;BME280;39398;48.382;9.802;2023-03-14T22:34:24;93092.22;;;2.02;100.00
53522;BME280;39398;48.382;9.802;2023-03-14T22:39:26;93077.69;;;1.83;100.00
53522;BME280;39398;48.382;9.802;2023-03-14T22:44:29;93082.22;;;1.81;100.00
53522;BME280;39398;48.382;9.802;2023-03-14T22:49:31;93091.03;;;1.80;100.00
53522;BME280;39398;48.382;9.802;2023-03-14T22:54:32;93087.69;;;2.45;100.00
53522;BME280;39398;48.382;9.802;2023-03-14T22:59:35;93082.81;;;2.33;100.00
53522;BME280;39398;48.382;9.802;2023-03-14T23:04:37;93093.56;;;2.71;100.00
53522;BME280;39398;48.382;9.802;2023-03-14T23:09:38;93090.13;;;2.22;100.00
53522;BME280;39398;48.382;9.802;2023-03-14T23:14:41;93088.63;;;2.19;100.00
53522;BME280;39398;48.382;9.802;2023-03-14T23:19:43;93094.34;;;2.39;100.00
53522;BME280;39398;48.382;9.802;2023-03-14T23:24:45;93091.91;;;2.05;100.00
53522;BME280;39398;48.382;9.802;2023-03-14T23:29:48;93082.47;;;2.37;100.00
53522;BME280;39398;48.382;9.802;2023-03-14T23:34:50;93087.50;;;2.05;100.00
53522;BME280;39398;48.382;9.802;2023-03-14T23:39:51;93082.59;;;2.10;100.00
53522;BME280;39398;48.382;9.802;2023-03-14T23:44:54;93088.19;;;2.40;100.00
53522;BME280;39398;48.382;9.802;2023-03-14T23:49:56;93083.06;;;2.96;100.00
53522;BME280;39398;48.382;9.802;2023-03-14T23:54:57;93094.97;;;3.07;100.00
